Time;durP1;ratioP1;P1;durP2;ratioP2;P2;SDS_P1;SDS_P2;PMS_P1;PMS_P2;Temp;Humidity;BMP_temperature;BMP_pressure;BME280_temperature;BME280_humidity;BME280_pressure;Samples;Min_cycle;Max_cycle;Signal;HPM_P1;HPM_P2
2022/04/01 00:02:23;;;;;;;0.50;0.50;;;18.70;39.60;;;;;;5159304;27;20516;-58
2022/04/01 00:04:50;;;;;;;0.80;0.73;;;18.70;39.60;;;;;;5159415;27;20068;-58
2022/04/01 00:07:16;;;;;;;0.98;0.70;;;18.70;39.60;;;;;;5159137;27;20361;-57
2022/04/01 00:09:42;;;;;;;0.93;0.80;;;18.70;39.60;;;;;;5159072;27;20018;-58
2022/04/01 00:12:11;;;;;;;0.52;0.52;;;18.60;39.60;;;;;;5158209;27;20365;-58
2022/04/01 00:14:38;;;;;;;0.70;0.70;;;18.60;39.60;;;;;;5159861;27;20035;-58
2022/04/01 00:17:04;;;;;;;1.52;0.95;;;18.60;39.60;;;;;;5158206;27;20026;-58
2022/04/01 00:19:30;;;;;;;0.80;0.60;;;18.60;39.50;;;;;;5140876;27;20019;-57
2022/04/01 00:22:00;;;;;;;1.02;0.68;;;18.60;39.50;;;;;;5159046;27;20039;-58
2022/04/01 00:24:26;;;;;;;0.80;0.80;;;18.60;40.10;;;;;;5157618;27;20031;-58
2022/04/01 00:26:52;;;;;;;0.70;0.70;;;18.60;39.50;;;;;;5158704;27;20376;-58
2022/04/01 00:29:20;;;;;;;0.63;0.63;;;18.60;39.50;;;;;;5158305;27;20019;-58
2022/04/01 00:31:48;;;;;;;0.85;0.75;;;18.60;39.60;;;;;;5157973;27;20481;-58
2022/04/01 00:34:18;;;;;;;1.33;0.90;;;18.60;39.60;;;;;;5158024;27;20437;-58
2022/04/01 00:36:45;;;;;;;0.60;0.60;;;18.60;39.60;;;;;;5140231;27;20019;-59
2022/04/01 00:39:12;;;;;;;0.90;0.90;;;18.50;39.60;;;;;;5157815;27;20066;-58
2022/04/01 00:41:39;;;;;;;0.80;0.80;;;18.50;39.60;;;;;;5158704;27;20022;-58
2022/04/01 00:44:22;;;;;;;0.70;0.70;;;18.60;39.60;;;;;;5158098;27;20031;-58
2022/04/01 00:47:02;;;;;;;1.02;0.80;;;18.50;39.50;;;;;;5157874;27;20453;-56
2022/04/01 00:49:28;;;;;;;0.73;0.73;;;18.60;39.60;;;;;;5158043;27;20025;-58
2022/04/01 00:51:55;;;;;;;1.00;0.90;;;18.50;39.60;;;;;;5157506;27;20003;-59
2022/04/01 00:54:22;;;;;;;0.75;0.73;;;18.50;39.50;;;;;;5158228;27;20026;-58
2022/04/01 00:56:47;;;;;;;1.00;0.90;;;18.50;39.60;;;;;;5157881;27;20372;-59
2022/04/01 00:59:14;;;;;;;1.65;0.95;;;18.50;39.60;;;;;;5158178;27;20033;-58
2022/04/01 01:01:43;;;;;;;0.60;0.60;;;18.50;39.60;;;;;;5156794;27;20532;-58
2022/04/01 01:04:14;;;;;;;0.80;0.80;;;18.50;39.60;;;;;;5158244;27;20023;-58
2022/04/01 01:06:47;;;;;;;1.08;0.98;;;18.40;39.60;;;;;;5158764;27;20015;-58
2022/04/01 01:09:13;;;;;;;0.88;0.80;;;18.40;39.60;;;;;;5158230;27;20022;-58
2022/04/01 01:11:40;;;;;;;1.20;1.10;;;18.50;39.60;;;;;;5158223;27;20029;-58
2022/04/01 01:14:08;;;;;;;0.88;0.88;;;18.40;39.50;;;;;;5156207;27;20011;-58
2022/04/01 01:16:35;;;;;;;1.25;0.90;;;18.40;39.50;;;;;;5157309;27;20042;-59
2022/04/01 01:19:03;;;;;;;0.80;0.80;;;18.40;39.60;;;;;;5157043;27;20029;-58
2022/04/01 01:21:30;;;;;;;0.90;0.80;;;18.40;39.50;;;;;;5156714;27;20047;-56
2022/04/01 01:23:59;;;;;;;1.17;0.98;;;18.40;39.50;;;;;;5157301;27;20015;-58
2022/04/01 01:26:26;;;;;;;1.45;1.00;;;18.50;39.40;;;;;;5156875;27;20021;-56
2022/04/01 01:28:52;;;;;;;1.30;1.10;;;18.40;39.30;;;;;;5138708;27;20010;-57
2022/04/01 01:31:21;;;;;;;1.20;1.00;;;18.40;39.40;;;;;;5156952;27;20085;-58
2022/04/01 01:33:48;;;;;;;1.10;1.00;;;18.40;39.40;;;;;;5157865;27;20034;-59
2022/04/01 01:36:13;;;;;;;0.85;0.85;;;18.40;39.20;;;;;;5156173;27;20015;-58
2022/04/01 01:38:39;;;;;;;1.02;0.90;;;18.40;39.30;;;;;;5156502;27;20019;-58
2022/04/01 01:41:04;;;;;;;0.93;0.93;;;18.40;39.30;;;;;;5157545;27;20010;-58
2022/04/01 01:43:31;;;;;;;0.80;0.80;;;18.40;39.30;;;;;;5157616;27;20079;-58
2022/04/01 01:45:57;;;;;;;0.90;0.90;;;18.30;39.20;;;;;;5157677;27;20018;-58
2022/04/01 01:48:23;;;;;;;1.20;1.10;;;18.30;39.20;;;;;;5156564;27;20019;-58
2022/04/01 01:56:17;;;;;;;1.52;1.20;;;18.30;39.20;;;;;;5156776;27;20084;-58
2022/04/01 01:58:43;;;;;;;0.85;0.85;;;18.30;39.20;;;;;;5156773;27;20018;-57
2022/04/01 02:01:10;;;;;;;1.00;1.00;;;18.30;39.30;;;;;;5157041;27;20051;-59
2022/04/01 02:03:35;;;;;;;1.30;1.20;;;18.30;39.30;;;;;;5155730;27;20023;-60
2022/04/01 02:06:03;;;;;;;1.20;1.10;;;18.30;39.20;;;;;;5157572;27;20007;-57
2022/04/01 02:08:29;;;;;;;1.63;1.00;;;18.20;39.20;;;;;;5156260;27;20019;-57
2022/04/01 02:10:56;;;;;;;1.10;1.00;;;18.30;39.30;;;;;;5156555;27;20003;-58
2022/04/01 02:13:23;;;;;;;1.05;0.95;;;18.30;39.20;;;;;;5156941;27;20019;-58
2022/04/01 02:15:49;;;;;;;1.20;1.10;;;18.20;39.10;;;;;;5156853;27;20106;-59
2022/04/01 02:18:16;;;;;;;1.50;1.10;;;18.20;39.80;;;;;;5157475;27;20021;-58
2022/04/01 02:20:41;;;;;;;1.27;1.10;;;18.20;39.20;;;;;;5157675;27;20011;-58
2022/04/01 02:23:07;;;;;;;1.20;1.10;;;18.20;39.10;;;;;;5156879;27;20068;-58
2022/04/01 02:25:33;;;;;;;0.98;0.88;;;18.20;39.20;;;;;;5159470;27;20053;-59
2022/04/01 02:27:59;;;;;;;1.05;0.95;;;18.20;39.10;;;;;;5158226;27;20540;-58
2022/04/01 02:30:26;;;;;;;1.10;1.00;;;18.20;39.10;;;;;;5158254;27;20019;-58
2022/04/01 02:32:52;;;;;;;1.35;1.00;;;18.20;39.10;;;;;;5158213;27;20007;-58
2022/04/01 02:35:18;;;;;;;1.25;1.15;;;18.20;39.10;;;;;;5157272;27;20015;-58
2022/04/01 02:37:44;;;;;;;1.40;1.30;;;18.20;39.10;;;;;;5158606;27;20053;-58
2022/04/01 02:40:11;;;;;;;1.48;1.20;;;18.20;39.20;;;;;;5156838;27;20106;-59
2022/04/01 02:42:38;;;;;;;1.10;1.00;;;18.10;39.10;;;;;;5158468;27;20023;-58
2022/04/01 02:45:04;;;;;;;1.20;1.10;;;18.10;39.00;;;;;;5157585;27;20019;-58
2022/04/01 02:47:30;;;;;;;1.08;1.08;;;18.20;39.10;;;;;;5156724;27;20082;-59
2022/04/01 02:49:56;;;;;;;1.15;1.05;;;18.10;39.00;;;;;;5157300;27;20029;-58
2022/04/01 02:52:23;;;;;;;1.00;0.93;;;18.10;39.00;;;;;;5157826;27;20065;-58
2022/04/01 02:54:52;;;;;;;1.35;1.15;;;18.10;39.10;;;;;;5157448;27;20014;-58
2022/04/01 02:57:18;;;;;;;1.05;1.00;;;18.10;39.00;;;;;;5156998;27;20070;-58
2022/04/01 02:59:44;;;;;;;1.00;0.90;;;18.10;39.00;;;;;;5155947;27;20038;-58
2022/04/01 03:02:10;;;;;;;1.35;0.90;;;18.10;39.00;;;;;;5157220;27;20026;-58
2022/04/01 03:04:36;;;;;;;0.93;0.90;;;18.10;39.00;;;;;;5157708;27;20018;-58
2022/04/01 03:07:03;;;;;;;1.13;1.02;;;18.10;38.90;;;;;;5157715;27;20067;-58
2022/04/01 03:09:30;;;;;;;1.35;1.15;;;18.10;39.00;;;;;;5157448;27;20003;-59
2022/04/01 03:11:56;;;;;;;1.30;1.10;;;18.10;39.00;;;;;;5156812;27;20019;-58
2022/04/01 03:14:22;;;;;;;1.10;1.00;;;18.10;39.00;;;;;;5156501;27;20100;-58
2022/04/01 03:16:48;;;;;;;1.00;0.93;;;18.10;39.00;;;;;;5156603;27;20023;-58
2022/04/01 03:19:16;;;;;;;0.90;0.90;;;18.10;39.10;;;;;;5156644;27;20019;-58
2022/04/01 03:21:42;;;;;;;1.20;0.90;;;18.10;39.10;;;;;;5156153;27;20039;-58
2022/04/01 03:24:09;;;;;;;1.15;0.93;;;18.00;38.90;;;;;;5156767;27;20026;-58
2022/04/01 03:26:35;;;;;;;1.00;1.00;;;18.00;39.00;;;;;;5156901;27;20003;-58
2022/04/01 03:29:02;;;;;;;1.00;0.90;;;18.00;39.00;;;;;;5157694;27;20018;-58
2022/04/01 03:31:28;;;;;;;1.35;1.08;;;18.00;39.00;;;;;;5157464;27;20011;-59
2022/04/01 03:33:54;;;;;;;1.38;1.10;;;18.00;38.90;;;;;;5157047;27;20030;-58
2022/04/01 03:36:19;;;;;;;1.23;1.13;;;18.10;39.00;;;;;;5155754;27;20485;-58
2022/04/01 03:38:46;;;;;;;1.17;1.10;;;18.00;39.00;;;;;;5156547;27;20022;-58
2022/04/01 03:41:12;;;;;;;1.00;1.00;;;18.00;39.10;;;;;;5155142;27;20019;-58
2022/04/01 03:43:40;;;;;;;1.23;1.02;;;18.00;39.00;;;;;;5155408;27;20038;-58
2022/04/01 03:46:10;;;;;;;1.13;1.00;;;18.00;39.00;;;;;;5155819;27;20015;-57
2022/04/01 03:48:52;;;;;;;2.03;1.00;;;18.00;39.00;;;;;;5154238;27;20715;-57
2022/04/01 03:51:19;;;;;;;1.55;1.00;;;18.00;38.90;;;;;;5155899;27;20011;-58
2022/04/01 03:53:58;;;;;;;1.30;0.85;;;18.10;38.70;;;;;;5155652;27;20045;-58
2022/04/01 03:56:34;;;;;;;1.00;1.00;;;18.30;38.60;;;;;;5155355;27;20017;-58
2022/04/01 03:59:08;;;;;;;0.75;0.75;;;18.40;38.40;;;;;;5155839;27;20023;-58
2022/04/01 04:01:37;;;;;;;0.80;0.80;;;18.50;38.20;;;;;;5159172;27;20015;-59
2022/04/01 04:04:03;;;;;;;1.08;0.90;;;18.50;37.90;;;;;;5158907;27;20026;-56
2022/04/01 04:06:31;;;;;;;0.85;0.82;;;18.60;37.90;;;;;;5158630;27;20469;-58
2022/04/01 04:08:57;;;;;;;0.70;0.70;;;18.70;37.70;;;;;;5157179;27;20047;-57
2022/04/01 04:11:25;;;;;;;1.15;0.90;;;18.80;37.60;;;;;;5158581;27;20490;-58
2022/04/01 04:13:52;;;;;;;1.65;0.68;;;18.90;37.20;;;;;;5158142;27;20055;-58
2022/04/01 04:16:24;;;;;;;0.90;0.80;;;19.00;37.10;;;;;;5158156;27;20015;-58
2022/04/01 04:19:03;;;;;;;0.88;0.88;;;19.00;36.90;;;;;;5157796;27;20018;-58
2022/04/01 04:21:30;;;;;;;0.73;0.73;;;19.10;36.90;;;;;;5157721;27;20066;-58
2022/04/01 04:24:03;;;;;;;0.88;0.70;;;19.20;36.80;;;;;;5157852;27;20106;-58
2022/04/01 04:26:46;;;;;;;0.70;0.70;;;19.30;36.60;;;;;;5158153;27;20042;-58
2022/04/01 04:29:14;;;;;;;0.55;0.55;;;19.40;36.30;;;;;;5157927;27;20350;-58
2022/04/01 04:32:03;;;;;;;0.90;0.73;;;19.50;36.10;;;;;;5158760;27;20015;-58
2022/04/01 04:34:39;;;;;;;0.63;0.60;;;19.70;35.90;;;;;;5159369;27;20054;-58
2022/04/01 04:37:09;;;;;;;1.00;0.82;;;19.80;35.70;;;;;;5159938;27;20067;-58
2022/04/01 04:39:35;;;;;;;0.88;0.70;;;19.90;35.60;;;;;;5159591;27;20018;-58
2022/04/01 04:42:02;;;;;;;0.88;0.88;;;20.00;35.40;;;;;;5158726;27;20022;-58
2022/04/01 04:44:30;;;;;;;0.85;0.80;;;20.10;35.20;;;;;;5159031;27;20019;-59
2022/04/01 04:47:00;;;;;;;0.52;0.52;;;20.10;35.10;;;;;;5158760;27;20015;-58
2022/04/01 04:49:27;;;;;;;1.67;0.60;;;20.30;34.90;;;;;;5159435;27;20086;-58
2022/04/01 04:51:53;;;;;;;0.65;0.63;;;20.40;34.70;;;;;;5159612;27;20090;-59
2022/04/01 04:54:20;;;;;;;0.60;0.60;;;20.50;34.60;;;;;;5158896;27;20098;-58
2022/04/01 04:56:50;;;;;;;0.68;0.57;;;20.60;34.60;;;;;;5157975;27;20023;-58
2022/04/01 04:59:20;;;;;;;0.52;0.52;;;20.70;34.40;;;;;;5156937;27;20019;-57
2022/04/01 05:02:02;;;;;;;0.52;0.52;;;20.80;34.20;;;;;;5156253;27;20388;-59
2022/04/01 05:05:03;;;;;;;0.82;0.68;;;20.90;34.00;;;;;;5156629;27;20472;-58
2022/04/01 05:07:29;;;;;;;0.77;0.70;;;21.00;34.50;;;;;;5157009;27;20492;-58
2022/04/01 05:10:16;;;;;;;0.60;0.55;;;21.10;33.80;;;;;;5157085;27;20067;-57
2022/04/01 05:12:42;;;;;;;0.60;0.57;;;21.20;33.60;;;;;;5157515;27;20065;-59
2022/04/01 05:15:09;;;;;;;0.93;0.90;;;21.20;33.50;;;;;;5157706;27;20026;-58
2022/04/01 05:17:36;;;;;;;1.80;0.60;;;21.30;33.50;;;;;;5157062;27;20018;-57
2022/04/01 05:20:16;;;;;;;1.15;0.80;;;21.40;33.40;;;;;;5158317;27;20030;-58
2022/04/01 05:22:58;;;;;;;0.63;0.60;;;21.40;33.30;;;;;;5158483;27;20038;-58
2022/04/01 05:25:25;;;;;;;0.93;0.75;;;21.50;33.30;;;;;;5160258;27;20026;-58
2022/04/01 05:27:53;;;;;;;0.93;0.57;;;21.60;33.30;;;;;;5158246;27;20536;-59
2022/04/01 05:30:21;;;;;;;0.52;0.52;;;21.60;33.20;;;;;;5157967;27;20026;-60
2022/04/01 05:32:59;;;;;;;1.42;0.80;;;21.60;33.30;;;;;;5156737;27;20011;-58
2022/04/01 05:35:33;;;;;;;0.60;0.60;;;21.70;33.20;;;;;;5158098;27;20064;-59
2022/04/01 05:38:02;;;;;;;1.00;0.80;;;21.70;33.10;;;;;;5160157;27;20481;-59
2022/04/01 05:40:28;;;;;;;1.05;0.90;;;21.80;33.10;;;;;;5159550;27;20080;-60
2022/04/01 05:42:57;;;;;;;0.65;0.65;;;21.80;33.10;;;;;;5157952;27;20021;-58
2022/04/01 05:45:27;;;;;;;0.70;0.70;;;21.90;33.00;;;;;;5156796;27;20075;-58
2022/04/01 05:47:54;;;;;;;0.70;0.70;;;21.90;33.00;;;;;;5156948;27;20030;-58
2022/04/01 05:50:23;;;;;;;0.70;0.70;;;21.90;32.90;;;;;;5156325;27;20485;-58
2022/04/01 05:52:50;;;;;;;0.70;0.70;;;22.00;33.00;;;;;;5155824;27;20060;-58
2022/04/01 05:55:18;;;;;;;2.00;0.65;;;22.00;33.00;;;;;;5156229;27;20464;-58
2022/04/01 05:57:44;;;;;;;0.57;0.50;;;22.00;33.00;;;;;;5154901;27;20503;-58
2022/04/01 06:00:13;;;;;;;1.13;0.85;;;22.00;32.90;;;;;;5154851;27;20030;-58
2022/04/01 06:03:03;;;;;;;0.80;0.80;;;22.10;32.90;;;;;;5154399;27;20046;-58
2022/04/01 06:05:56;;;;;;;0.95;0.70;;;22.10;32.90;;;;;;5154391;27;20023;-57
2022/04/01 06:08:37;;;;;;;0.77;0.68;;;22.10;32.80;;;;;;5154398;27;20035;-58
2022/04/01 06:11:06;;;;;;;0.63;0.50;;;22.20;32.70;;;;;;5155748;27;20015;-57
2022/04/01 06:13:45;;;;;;;0.95;0.70;;;22.20;32.80;;;;;;5155122;27;20014;-58
2022/04/01 06:16:25;;;;;;;0.60;0.60;;;22.20;32.80;;;;;;5155077;27;20015;-57
2022/04/01 06:19:17;;;;;;;1.33;0.70;;;22.20;32.80;;;;;;5153968;27;20326;-58
2022/04/01 06:21:47;;;;;;;0.75;0.75;;;22.20;32.60;;;;;;5152273;27;20038;-59
2022/04/01 06:24:42;;;;;;;0.60;0.60;;;22.30;32.50;;;;;;5154541;27;20115;-57
2022/04/01 06:27:09;;;;;;;0.90;0.77;;;22.40;32.40;;;;;;5152722;27;20515;-58
2022/04/01 06:29:38;;;;;;;0.63;0.63;;;22.40;32.40;;;;;;5154789;27;20030;-57
2022/04/01 06:32:11;;;;;;;1.65;0.60;;;22.40;32.30;;;;;;5155094;27;20082;-57
2022/04/01 06:34:59;;;;;;;0.68;0.68;;;22.40;32.30;;;;;;5154976;27;20498;-58
2022/04/01 06:37:29;;;;;;;0.70;0.70;;;22.40;32.30;;;;;;5154771;27;20011;-57
2022/04/01 06:40:05;;;;;;;1.30;0.70;;;22.40;32.30;;;;;;5154761;27;20034;-57
2022/04/01 06:42:33;;;;;;;2.88;0.60;;;22.40;32.20;;;;;;5154153;27;20030;-56
2022/04/01 06:44:59;;;;;;;0.88;0.65;;;22.40;32.20;;;;;;5155057;27;20027;-57
2022/04/01 06:47:26;;;;;;;1.08;0.60;;;22.50;32.20;;;;;;5154039;27;20445;-56
2022/04/01 06:49:51;;;;;;;1.40;0.70;;;22.50;32.20;;;;;;5152904;27;20021;-57
2022/04/01 06:52:19;;;;;;;1.48;0.70;;;22.40;32.10;;;;;;5136049;27;20165;-59
2022/04/01 06:54:47;;;;;;;0.70;0.70;;;22.40;32.20;;;;;;5154923;27;20517;-58
2022/04/01 06:57:14;;;;;;;0.85;0.50;;;22.50;32.20;;;;;;5155321;27;20050;-59
2022/04/01 06:59:40;;;;;;;0.85;0.75;;;22.50;32.10;;;;;;5154769;27;20591;-58
2022/04/01 07:02:07;;;;;;;1.02;0.60;;;22.60;32.10;;;;;;5153386;27;20022;-58
2022/04/01 07:04:32;;;;;;;2.38;0.65;;;22.60;32.00;;;;;;5154180;27;20022;-58
2022/04/01 07:06:59;;;;;;;2.05;0.80;;;22.70;31.90;;;;;;5153941;27;20026;-58
2022/04/01 07:09:25;;;;;;;0.98;0.45;;;22.80;32.00;;;;;;5155689;27;20005;-59
2022/04/01 07:11:53;;;;;;;3.38;0.90;;;22.70;31.80;;;;;;5154054;27;20018;-58
2022/04/01 07:14:19;;;;;;;2.40;0.60;;;22.70;31.90;;;;;;5155096;27;20495;-59
2022/04/01 07:16:45;;;;;;;7.53;0.93;;;22.70;32.00;;;;;;5155924;27;20023;-60
2022/04/01 07:19:11;;;;;;;0.77;0.75;;;22.80;32.00;;;;;;5136479;27;20030;-58
2022/04/01 07:21:37;;;;;;;2.83;0.80;;;22.70;31.90;;;;;;5153788;27;20038;-57
2022/04/01 07:24:04;;;;;;;1.50;0.52;;;22.80;31.90;;;;;;5154797;27;20019;-58
2022/04/01 07:26:29;;;;;;;2.35;0.80;;;22.90;31.90;;;;;;5155435;27;20050;-58
2022/04/01 07:28:55;;;;;;;1.33;0.60;;;22.80;31.90;;;;;;5154720;27;20449;-58
2022/04/01 07:34:07;;;;;;;1.83;0.70;;;22.80;31.90;;;;;;5157569;27;20029;-58
2022/04/01 07:36:33;;;;;;;1.15;0.75;;;22.80;31.90;;;;;;5157704;27;20010;-58
2022/04/01 07:39:02;;;;;;;2.67;0.63;;;22.80;31.90;;;;;;5159415;27;20495;-58
2022/04/01 07:41:29;;;;;;;1.67;0.77;;;22.90;31.90;;;;;;5139864;27;20023;-58
2022/04/01 07:43:55;;;;;;;0.80;0.80;;;22.90;32.00;;;;;;5157231;27;20071;-58
2022/04/01 07:46:35;;;;;;;2.83;0.70;;;22.90;31.90;;;;;;5158271;27;20031;-58
2022/04/01 07:49:13;;;;;;;0.70;0.70;;;22.90;31.60;;;;;;5151845;27;20484;-59
2022/04/01 07:51:39;;;;;;;2.95;0.70;;;22.90;32.00;;;;;;5153904;27;20510;-58
2022/04/01 08:01:32;;;;;;;1.30;0.55;;;23.00;31.90;;;;;;5134393;27;20027;-58
2022/04/01 08:04:18;;;;;;;1.83;0.80;;;23.00;31.90;;;;;;5141896;27;20373;-57
2022/04/01 08:06:44;;;;;;;2.45;0.70;;;22.90;31.90;;;;;;5158162;27;20007;-58
2022/04/01 08:09:12;;;;;;;1.67;0.60;;;23.00;31.90;;;;;;5139800;27;20458;-58
2022/04/01 08:11:39;;;;;;;2.08;0.80;;;23.00;31.90;;;;;;5157452;27;20011;-59
2022/04/01 08:14:05;;;;;;;2.90;0.70;;;23.10;31.80;;;;;;5157435;27;20015;-58
2022/04/01 08:16:33;;;;;;;0.93;0.73;;;23.10;31.70;;;;;;5155712;27;20118;-57
2022/04/01 08:19:05;;;;;;;0.93;0.75;;;23.20;31.70;;;;;;5156219;27;20473;-57
2022/04/01 08:21:34;;;;;;;;;;;23.10;31.70;;;;;;5156402;27;20130;-57
2022/04/01 08:24:01;;;;;;;1.88;0.80;;;23.10;31.70;;;;;;5156473;27;20029;-57
2022/04/01 08:26:28;;;;;;;2.13;0.75;;;23.00;31.80;;;;;;5155317;27;20034;-57
2022/04/01 08:28:55;;;;;;;0.95;0.52;;;23.00;31.80;;;;;;5157028;27;20038;-60
2022/04/01 08:31:30;;;;;;;1.83;0.60;;;23.00;31.90;;;;;;5155692;27;20011;-58
2022/04/01 08:34:10;;;;;;;2.05;0.70;;;23.00;31.90;;;;;;5157192;27;20019;-58
2022/04/01 08:36:56;;;;;;;1.27;0.75;;;23.00;32.00;;;;;;5155067;27;20152;-58
2022/04/01 08:39:28;;;;;;;1.75;0.80;;;23.00;32.10;;;;;;5155503;27;20082;-59
2022/04/01 08:42:02;;;;;;;1.88;0.88;;;23.00;32.00;;;;;;5157176;27;20014;-59
2022/04/01 08:44:42;;;;;;;1.25;0.70;;;22.90;32.00;;;;;;5154757;27;20062;-58
2022/04/01 08:50:40;;;;;;;3.20;0.80;;;22.90;31.90;;;;;;5157509;27;20029;-58
2022/04/01 08:53:09;;;;;;;1.25;0.80;;;22.90;32.00;;;;;;5156253;27;20032;-59
2022/04/01 08:55:50;;;;;;;1.05;0.75;;;22.90;32.00;;;;;;5156115;27;20053;-58
2022/04/01 08:58:28;;;;;;;8.27;1.25;;;22.90;32.10;;;;;;5156428;27;20178;-58
2022/04/01 09:01:00;;;;;;;0.90;0.52;;;22.90;32.10;;;;;;5155560;27;20037;-57
2022/04/01 09:03:31;;;;;;;1.90;0.55;;;22.90;32.00;;;;;;5155186;27;20015;-58
2022/04/01 09:06:07;;;;;;;1.48;0.80;;;22.90;32.00;;;;;;5154825;27;20035;-58
2022/04/01 09:08:45;;;;;;;1.60;0.80;;;22.90;32.00;;;;;;5154586;27;20076;-56
2022/04/01 09:11:34;;;;;;;;;;;;;;;;;;;;;
2022/04/01 09:14:06;;;;;;;1.52;0.82;;;23.00;32.00;;;;;;5153465;27;20019;-59
2022/04/01 09:16:41;;;;;;;2.40;0.80;;;22.90;32.00;;;;;;5154673;27;20027;-58
2022/04/01 09:19:08;;;;;;;0.90;0.60;;;23.00;32.00;;;;;;5138048;27;20022;-58
2022/04/01 09:21:42;;;;;;;1.08;0.68;;;22.90;32.00;;;;;;5155242;27;20089;-57
2022/04/01 09:24:11;;;;;;;3.28;0.60;;;23.00;32.00;;;;;;5155463;27;20066;-58
2022/04/01 09:26:41;;;;;;;1.08;0.70;;;22.90;31.90;;;;;;5155562;27;20102;-58
2022/04/01 09:29:08;;;;;;;1.02;0.85;;;22.90;31.90;;;;;;5120503;27;20107;-58
2022/04/01 09:31:48;;;;;;;1.15;0.80;;;22.90;32.00;;;;;;5153709;27;20023;-58
2022/04/01 09:34:24;;;;;;;1.90;0.80;;;22.90;32.10;;;;;;5156201;27;20026;-58
2022/04/01 09:36:54;;;;;;;1.48;0.60;;;23.00;32.00;;;;;;5156000;27;20094;-58
2022/04/01 09:39:29;;;;;;;1.48;0.80;;;22.90;32.00;;;;;;5156472;27;20121;-58
2022/04/01 09:42:00;;;;;;;1.30;0.50;;;22.90;32.10;;;;;;5152575;27;20031;-60
2022/04/01 09:44:36;;;;;;;;;;;22.90;32.00;;;;;;5155616;27;20046;-59
2022/04/01 09:47:07;;;;;;;2.38;0.85;;;22.90;32.00;;;;;;5155977;27;19898;-58
2022/04/01 09:50:05;;;;;;;0.70;0.70;;;23.00;32.10;;;;;;5154557;27;20034;-58
2022/04/01 09:52:43;;;;;;;0.95;0.70;;;23.00;32.00;;;;;;5152629;27;20087;-59
2022/04/01 09:55:13;;;;;;;1.10;0.70;;;23.00;32.10;;;;;;5153487;27;20786;-58
2022/04/01 09:57:46;;;;;;;1.60;0.80;;;23.00;32.10;;;;;;5154032;27;20045;-57
2022/04/01 10:00:18;;;;;;;0.90;0.60;;;23.00;32.00;;;;;;5152423;27;20276;-57
2022/04/01 10:02:52;;;;;;;1.17;0.65;;;23.00;32.00;;;;;;5118344;27;20129;-57
2022/04/01 10:05:25;;;;;;;5.68;0.88;;;23.00;32.10;;;;;;5154028;27;20023;-57
2022/04/01 10:08:12;;;;;;;1.40;0.80;;;23.00;32.00;;;;;;5134963;27;20030;-58
2022/04/01 10:10:41;;;;;;;0.77;0.60;;;23.00;32.00;;;;;;5150362;27;20041;-58
2022/04/01 10:13:40;;;;;;;1.85;0.68;;;23.10;32.00;;;;;;5153813;27;20034;-57
2022/04/01 10:16:19;;;;;;;2.55;0.80;;;23.00;32.00;;;;;;5084100;28;20474;-47
2022/04/01 10:18:51;;;;;;;1.27;0.70;;;23.00;32.00;;;;;;5082627;28;20093;-47
2022/04/01 10:21:28;;;;;;;4.07;1.50;;;23.00;32.00;;;;;;5086553;28;20298;-48
2022/04/01 10:24:41;;;;;;;1.05;0.70;;;23.10;31.90;;;;;;5072036;28;20032;-46
2022/04/01 10:27:44;;;;;;;1.85;0.70;;;23.10;31.90;;;;;;5078014;28;20085;-51
2022/04/01 10:30:22;;;;;;;1.33;0.80;;;23.10;31.90;;;;;;5088771;28;20020;-53
2022/04/01 10:33:10;;;;;;;1.27;0.55;;;23.10;31.80;;;;;;5088411;28;20036;-54
2022/04/01 10:35:42;;;;;;;2.00;0.73;;;23.10;31.90;;;;;;5088200;28;20180;-53
2022/04/01 10:38:33;;;;;;;1.30;0.70;;;23.10;31.70;;;;;;5071412;28;20226;-52
2022/04/01 10:41:41;;;;;;;2.08;0.75;;;23.10;31.90;;;;;;5057632;28;20075;-53
2022/04/01 10:44:21;;;;;;;1.25;0.70;;;23.20;31.90;;;;;;5089094;28;20024;-52
2022/04/01 10:47:06;;;;;;;1.35;0.90;;;23.20;31.90;;;;;;5071186;28;20032;-52
2022/04/01 10:52:50;;;;;;;1.73;0.90;;;23.20;32.50;;;;;;5115174;27;20025;-54
2022/04/01 10:55:30;;;;;;;2.60;0.82;;;23.20;31.80;;;;;;5153267;27;20059;-53
2022/04/01 10:58:10;;;;;;;1.23;0.85;;;23.20;31.80;;;;;;5152061;27;20049;-54
2022/04/01 11:00:54;;;;;;;1.85;0.98;;;23.20;32.00;;;;;;5135049;27;20022;-53
2022/04/01 11:03:37;;;;;;;1.23;0.70;;;23.20;31.90;;;;;;5154949;27;20026;-56
2022/04/01 11:07:24;;;;;;;;;;;;;;;;;;;;;
2022/04/01 11:10:32;;;;;;;1.67;0.85;;;23.20;32.00;;;;;;5156669;27;20333;-53
2022/04/01 11:13:02;;;;;;;2.78;0.95;;;23.20;32.10;;;;;;5094086;28;20114;-53
2022/04/01 11:22:36;;;;;;;2.15;0.98;;;23.20;32.00;;;;;;5093524;28;20042;-54
2022/04/01 11:25:32;;;;;;;3.65;1.13;;;23.20;32.00;;;;;;5071518;28;20131;-55
2022/04/01 11:28:20;;;;;;;1.67;1.00;;;23.20;32.10;;;;;;5093998;28;20556;-55
2022/04/01 11:31:13;;;;;;;3.65;0.95;;;23.20;32.10;;;;;;5091081;28;20031;-54
2022/04/01 11:34:01;;;;;;;2.00;0.90;;;23.20;32.10;;;;;;5092364;28;20050;-54
2022/04/01 11:36:37;;;;;;;1.75;0.70;;;23.30;32.00;;;;;;5093033;28;20036;-51
2022/04/01 11:39:05;;;;;;;1.92;0.85;;;23.30;32.10;;;;;;5093727;28;20016;-51
2022/04/01 11:41:47;;;;;;;2.67;1.25;;;23.30;32.10;;;;;;5042529;28;20213;-52
2022/04/01 11:44:14;;;;;;;1.63;0.80;;;23.30;32.00;;;;;;5093989;28;20028;-52
2022/04/01 11:46:40;;;;;;;1.40;0.82;;;23.30;32.10;;;;;;5093952;28;20054;-50
2022/04/01 11:49:07;;;;;;;2.30;0.90;;;23.30;32.10;;;;;;5111160;27;20038;-51
2022/04/01 11:51:33;;;;;;;1.67;0.70;;;23.30;32.00;;;;;;5156334;27;20069;-47
2022/04/01 11:53:59;;;;;;;1.52;0.98;;;23.30;32.00;;;;;;5156596;27;20480;-48
2022/04/01 11:56:28;;;;;;;2.90;0.80;;;23.30;32.00;;;;;;5157093;27;20018;-47
2022/04/01 11:59:04;;;;;;;3.35;0.90;;;23.40;32.00;;;;;;5158515;27;20042;-49
2022/04/01 12:01:34;;;;;;;1.70;0.90;;;23.30;32.00;;;;;;5158754;27;20015;-50
2022/04/01 12:04:05;;;;;;;0.60;0.60;;;23.30;31.90;;;;;;5159139;27;20058;-51
2022/04/01 12:09:15;;;;;;;4.32;0.80;;;23.30;32.40;;;;;;5158588;27;20613;-47
2022/04/01 12:11:42;;;;;;;4.63;0.90;;;23.40;31.90;;;;;;5156828;27;20090;-47
2022/04/01 12:14:08;;;;;;;3.45;0.88;;;23.40;31.80;;;;;;5160020;27;20065;-50
2022/04/01 12:16:39;;;;;;;1.90;0.70;;;23.40;31.80;;;;;;5158516;27;20456;-51
2022/04/01 12:19:04;;;;;;;2.25;0.90;;;23.40;31.70;;;;;;5157682;27;20046;-48
2022/04/01 12:21:31;;;;;;;1.13;0.82;;;23.40;31.80;;;;;;5156535;27;20046;-51
2022/04/01 12:23:57;;;;;;;1.30;0.57;;;23.50;31.80;;;;;;5156692;27;20187;-51
2022/04/01 12:26:26;;;;;;;16.70;1.40;;;23.50;31.80;;;;;;5136622;27;20014;-51
2022/04/01 12:28:52;;;;;;;9.40;1.73;;;23.40;31.40;;;;;;5154892;27;20514;-49
2022/04/01 12:31:22;;;;;;;5.85;1.55;;;23.30;31.00;;;;;;5136038;27;20019;-51
2022/04/01 12:33:51;;;;;;;8.93;1.70;;;23.20;31.50;;;;;;5154228;27;20034;-50
2022/04/01 12:36:30;;;;;;;16.17;1.88;;;23.20;32.10;;;;;;5152927;27;20011;-45
2022/04/01 12:39:09;;;;;;;6.82;1.35;;;23.30;32.60;;;;;;5154489;27;20018;-52
2022/04/01 12:41:35;;;;;;;5.63;1.25;;;23.30;33.10;;;;;;5154788;27;20102;-47
2022/04/01 12:44:10;;;;;;;12.73;1.70;;;23.40;34.00;;;;;;5154239;27;20034;-51
2022/04/01 12:46:36;;;;;;;16.30;1.45;;;23.40;34.40;;;;;;5154830;27;20018;-48
2022/04/01 12:49:16;;;;;;;9.60;1.77;;;23.50;34.90;;;;;;5152711;27;20022;-50
2022/04/01 12:51:57;;;;;;;12.68;1.77;;;23.60;35.40;;;;;;5154629;27;20385;-46
2022/04/01 12:54:31;;;;;;;9.10;1.75;;;23.60;35.80;;;;;;5154796;27;20039;-48
2022/04/01 12:56:58;;;;;;;10.85;1.35;;;23.70;36.60;;;;;;5155163;27;20015;-45
2022/04/01 12:59:24;;;;;;;10.40;2.25;;;23.70;36.80;;;;;;5155769;27;20087;-45
2022/04/01 13:02:25;;;;;;;10.25;1.63;;;23.80;37.30;;;;;;5156135;27;20066;-50
2022/04/01 13:04:53;;;;;;;11.95;1.50;;;23.70;36.50;;;;;;5093142;28;20028;-46
2022/04/01 13:07:30;;;;;;;9.68;1.67;;;23.70;36.10;;;;;;5092388;28;20135;-45
2022/04/01 13:09:57;;;;;;;12.13;1.75;;;23.70;36.10;;;;;;5090726;28;20016;-45
2022/04/01 13:12:35;;;;;;;7.68;1.60;;;23.70;35.80;;;;;;5091274;28;20020;-44
2022/04/01 13:15:12;;;;;;;7.05;1.40;;;23.60;35.80;;;;;;5092256;28;20019;-46
2022/04/01 13:17:49;;;;;;;8.13;1.70;;;23.60;35.60;;;;;;5075285;28;20032;-47
2022/04/01 13:20:16;;;;;;;6.60;1.30;;;23.60;35.50;;;;;;5076162;28;20603;-46
2022/04/01 13:22:42;;;;;;;5.88;1.33;;;23.60;35.30;;;;;;5093518;28;20431;-47
2022/04/01 13:25:09;;;;;;;14.00;1.92;;;23.60;35.10;;;;;;5095166;28;20045;-46
2022/04/01 13:27:35;;;;;;;11.55;2.35;;;23.60;35.00;;;;;;5079902;28;20013;-50
2022/04/01 13:30:03;;;;;;;5.72;1.33;;;23.60;34.90;;;;;;5096343;28;20017;-47
2022/04/01 13:32:29;;;;;;;10.55;1.20;;;23.60;34.60;;;;;;5095540;28;20040;-54
2022/04/01 13:34:56;;;;;;;8.23;1.40;;;23.60;34.60;;;;;;5096036;28;20042;-50
2022/04/01 13:37:22;;;;;;;6.63;1.27;;;23.60;34.60;;;;;;5080345;28;20081;-51
2022/04/01 13:39:48;;;;;;;6.75;1.30;;;23.60;34.20;;;;;;5151418;27;20442;-51
2022/04/01 13:42:16;;;;;;;3.42;1.00;;;23.60;34.10;;;;;;5160133;27;20021;-51
2022/04/01 13:44:41;;;;;;;5.47;1.17;;;23.60;34.10;;;;;;5158274;27;20121;-51